createdAt,value
2022-10-11T00:00:35.320Z,6.20
2022-10-11T00:03:02.047Z,6.25
2022-10-11T00:05:28.763Z,6.10
2022-10-11T00:07:55.410Z,6.22
2022-10-11T00:10:22.055Z,5.97
2022-10-11T00:12:48.751Z,5.60
2022-10-11T00:15:17.565Z,4.95
2022-10-11T00:17:44.213Z,5.15
2022-10-11T00:20:11.311Z,4.47
2022-10-11T00:22:38.087Z,4.65
2022-10-11T00:25:06.471Z,5.07
2022-10-11T00:27:33.734Z,5.97
2022-10-11T00:30:00.398Z,4.78
2022-10-11T00:32:27.459Z,4.35
2022-10-11T00:34:54.058Z,4.88
2022-10-11T00:37:20.664Z,4.25
2022-10-11T00:39:47.274Z,5.53
2022-10-11T00:42:14.821Z,4.50
2022-10-11T00:44:45.326Z,5.53
2022-10-11T00:47:15.377Z,4.47
2022-10-11T00:49:44.424Z,5.10
2022-10-11T00:52:15.398Z,5.32
2022-10-11T00:54:43.127Z,5.43
2022-10-11T00:57:12.038Z,6.47
2022-10-11T00:59:41.521Z,5.15
2022-10-11T01:02:08.471Z,4.95
2022-10-11T01:04:35.090Z,4.97
2022-10-11T01:07:02.013Z,5.47
2022-10-11T01:09:28.769Z,5.60
2022-10-11T01:11:57.210Z,5.50
2022-10-11T01:14:36.316Z,5.00
2022-10-11T01:17:27.500Z,5.38
2022-10-11T01:20:18.730Z,4.45
2022-10-11T01:23:07.784Z,5.20
2022-10-11T01:26:03.520Z,4.97
2022-10-11T01:31:34.794Z,5.75
2022-10-11T01:34:05.586Z,4.82
2022-10-11T01:36:34.448Z,5.15
2022-10-11T01:39:10.048Z,4.85
2022-10-11T01:41:41.173Z,5.20
2022-10-11T01:44:07.762Z,5.47
2022-10-11T01:46:34.544Z,4.40
2022-10-11T01:49:01.532Z,5.30
2022-10-11T01:51:31.508Z,4.15
2022-10-11T01:54:04.346Z,4.75
2022-10-11T01:56:45.740Z,5.00
2022-10-11T01:59:20.943Z,4.32
2022-10-11T02:01:56.387Z,5.63
2022-10-11T02:04:31.843Z,4.72
2022-10-11T02:07:01.319Z,6.35
2022-10-11T02:09:36.239Z,5.40
2022-10-11T02:12:06.038Z,5.03
2022-10-11T02:14:35.181Z,5.28
2022-10-11T02:17:07.423Z,5.15
2022-10-11T02:19:38.530Z,6.03
2022-10-11T02:22:10.217Z,5.60
2022-10-11T02:24:38.173Z,5.20
2022-10-11T02:27:04.767Z,5.43
2022-10-11T02:29:33.214Z,5.63
2022-10-11T02:32:00.510Z,5.80
2022-10-11T02:34:31.411Z,5.43
2022-10-11T02:37:19.936Z,5.38
2022-10-11T02:40:07.683Z,6.32
2022-10-11T02:42:37.406Z,6.07
2022-10-11T02:45:07.886Z,5.90
2022-10-11T02:47:34.495Z,6.38
2022-10-11T02:50:01.103Z,6.53
2022-10-11T02:52:28.026Z,6.53
2022-10-11T02:54:54.647Z,6.57
2022-10-11T02:57:21.271Z,5.75
2022-10-11T02:59:47.846Z,5.63
2022-10-11T03:02:14.518Z,6.82
2022-10-11T03:04:41.133Z,6.50
2022-10-11T03:07:07.734Z,6.03
2022-10-11T03:09:34.294Z,4.97
2022-10-11T03:12:00.867Z,6.40
2022-10-11T03:14:27.477Z,6.22
2022-10-11T03:16:54.089Z,6.53
2022-10-11T03:19:20.672Z,7.13
2022-10-11T03:21:47.320Z,6.00
2022-10-11T03:24:13.898Z,5.65
2022-10-11T03:26:40.507Z,5.78
2022-10-11T03:29:07.180Z,7.88
2022-10-11T03:31:33.778Z,5.55
2022-10-11T03:34:00.337Z,6.40
2022-10-11T03:36:26.955Z,5.18
2022-10-11T03:38:53.542Z,6.20
2022-10-11T03:41:20.135Z,5.30
2022-10-11T03:43:46.802Z,5.18
2022-10-11T03:46:13.423Z,5.13
2022-10-11T03:48:40.017Z,5.43
2022-10-11T03:51:06.687Z,6.15
2022-10-11T03:53:33.374Z,5.57
2022-10-11T03:56:02.419Z,5.38
2022-10-11T03:58:31.213Z,4.75
2022-10-11T04:00:57.883Z,4.70
2022-10-11T04:03:24.469Z,4.72
2022-10-11T04:05:51.133Z,5.03
2022-10-11T04:08:18.029Z,4.63
2022-10-11T04:10:44.642Z,4.32
2022-10-11T04:13:11.666Z,4.75
2022-10-11T04:15:38.630Z,4.55
2022-10-11T04:18:05.948Z,5.22
2022-10-11T04:20:32.594Z,4.30
2022-10-11T04:22:59.191Z,4.80
2022-10-11T04:25:25.855Z,4.07
2022-10-11T04:27:52.512Z,4.80
2022-10-11T04:30:19.691Z,4.65
2022-10-11T04:32:46.270Z,5.55
2022-10-11T04:35:12.882Z,5.32
2022-10-11T04:37:39.495Z,5.13
2022-10-11T04:40:07.283Z,5.15
2022-10-11T04:42:34.031Z,4.72
2022-10-11T04:45:00.642Z,5.30
2022-10-11T04:47:27.264Z,6.80
2022-10-11T04:49:53.846Z,4.82
2022-10-11T04:52:25.380Z,4.43
2022-10-11T04:54:52.477Z,4.88
2022-10-11T04:57:19.043Z,4.70
2022-10-11T04:59:50.020Z,5.03
2022-10-11T05:02:16.927Z,4.53
2022-10-11T05:04:43.681Z,6.57
2022-10-11T05:07:10.248Z,5.25
2022-10-11T05:09:36.917Z,4.53
2022-10-11T05:12:04.183Z,5.30
2022-10-11T05:14:30.833Z,4.65
2022-10-11T05:16:57.571Z,4.88
2022-10-11T05:19:24.244Z,5.15
2022-10-11T05:21:50.914Z,4.72
2022-10-11T05:24:17.530Z,5.40
2022-10-11T05:26:44.145Z,5.35
2022-10-11T05:29:10.761Z,4.53
2022-10-11T05:31:37.376Z,5.20
2022-10-11T05:34:03.991Z,7.75
2022-10-11T05:36:30.564Z,6.07
2022-10-11T05:38:57.310Z,7.60
2022-10-11T05:41:23.906Z,6.00
2022-10-11T05:43:50.510Z,7.55
2022-10-11T05:46:17.108Z,5.65
2022-10-11T05:48:43.698Z,5.45
2022-10-11T05:51:11.017Z,6.07
2022-10-11T05:53:38.200Z,5.55
2022-10-11T05:56:05.577Z,6.70
2022-10-11T05:58:32.425Z,6.28
2022-10-11T06:00:59.104Z,7.03
2022-10-11T06:03:25.816Z,6.78
2022-10-11T06:05:56.775Z,6.35
2022-10-11T06:08:23.850Z,5.72
2022-10-11T06:10:50.465Z,6.20
2022-10-11T06:13:17.203Z,6.00
2022-10-11T06:15:44.189Z,5.60
2022-10-11T06:18:10.949Z,5.70
2022-10-11T06:20:37.624Z,6.00
2022-10-11T06:23:04.265Z,6.80
2022-10-11T06:25:31.089Z,5.68
2022-10-11T06:27:57.729Z,6.15
2022-10-11T06:30:24.590Z,5.80
2022-10-11T06:32:51.419Z,6.38
2022-10-11T06:35:18.069Z,6.68
2022-10-11T06:37:44.757Z,7.75
2022-10-11T06:40:11.761Z,4.88
2022-10-11T06:42:38.448Z,5.35
2022-10-11T06:45:05.823Z,4.85
2022-10-11T06:47:32.454Z,6.43
2022-10-11T06:49:59.048Z,6.00
2022-10-11T06:52:25.764Z,6.03
2022-10-11T06:54:52.436Z,6.60
2022-10-11T06:57:19.242Z,5.35
2022-10-11T06:59:45.830Z,5.15
2022-10-11T07:02:12.422Z,5.57
2022-10-11T07:04:39.281Z,5.40
2022-10-11T07:07:05.923Z,5.00
2022-10-11T07:09:34.111Z,5.07
2022-10-11T07:12:00.697Z,5.63
2022-10-11T07:14:27.399Z,5.90
2022-10-11T07:16:53.992Z,5.22
2022-10-11T07:19:20.707Z,4.53
2022-10-11T07:21:47.348Z,5.45
2022-10-11T07:24:14.162Z,5.43
2022-10-11T07:26:40.831Z,5.88
2022-10-11T07:29:08.027Z,6.30
2022-10-11T07:31:34.755Z,4.82
2022-10-11T07:34:01.341Z,5.40
2022-10-11T07:36:27.937Z,4.72
2022-10-11T07:38:55.321Z,5.53
2022-10-11T07:41:21.979Z,4.93
2022-10-11T07:43:49.595Z,4.50
2022-10-11T07:46:17.237Z,4.57
2022-10-11T07:48:43.900Z,5.55
2022-10-11T07:51:13.630Z,5.60
2022-10-11T07:53:41.621Z,5.40
2022-10-11T07:56:09.345Z,5.82
2022-10-11T07:58:36.191Z,6.18
2022-10-11T08:01:03.005Z,4.50
2022-10-11T08:03:29.868Z,13.68
2022-10-11T08:06:01.435Z,5.07
2022-10-11T08:08:28.436Z,5.32
2022-10-11T08:10:55.407Z,5.30
2022-10-11T08:13:22.002Z,4.72
2022-10-11T08:15:48.640Z,5.25
2022-10-11T08:18:15.274Z,5.60
2022-10-11T08:20:41.972Z,5.90
2022-10-11T08:23:09.389Z,5.18
2022-10-11T08:25:38.069Z,6.43
2022-10-11T08:28:04.894Z,5.07
2022-10-11T08:30:31.701Z,5.72
2022-10-11T08:32:58.468Z,5.10
2022-10-11T08:35:25.094Z,5.35
2022-10-11T08:37:51.736Z,4.32
2022-10-11T08:40:19.623Z,5.05
2022-10-11T08:42:49.046Z,5.18
2022-10-11T08:45:34.977Z,4.90
2022-10-11T08:48:11.412Z,4.80
2022-10-11T08:50:38.052Z,4.63
2022-10-11T08:53:24.166Z,4.88
2022-10-11T08:55:51.229Z,4.70
2022-10-11T08:58:20.886Z,5.07
2022-10-11T09:00:48.363Z,5.05
2022-10-11T09:03:39.643Z,5.40
2022-10-11T09:06:14.324Z,5.18
2022-10-11T09:11:56.803Z,5.03
2022-10-11T09:14:47.021Z,6.10
2022-10-11T09:23:13.979Z,6.75
2022-10-11T09:25:49.628Z,7.47
2022-10-11T09:28:40.016Z,6.65
2022-10-11T09:31:09.155Z,7.60
2022-10-11T09:33:38.995Z,6.28
2022-10-11T09:36:32.789Z,7.15
2022-10-11T09:39:24.113Z,6.68
2022-10-11T09:42:08.715Z,6.47
2022-10-11T09:44:40.527Z,6.70
2022-10-11T09:47:07.798Z,6.97
2022-10-11T09:49:39.944Z,7.03
2022-10-11T09:52:11.160Z,8.35
2022-10-11T09:54:39.548Z,7.15
2022-10-11T09:57:06.872Z,6.82
2022-10-11T09:59:34.574Z,7.15
2022-10-11T10:08:11.865Z,7.43
2022-10-11T10:10:40.997Z,6.07
2022-10-11T10:13:27.729Z,6.38
2022-10-11T10:15:56.448Z,7.00
2022-10-11T10:18:24.838Z,7.35
2022-10-11T10:20:53.463Z,7.20
2022-10-11T10:23:25.129Z,7.05
2022-10-11T10:25:52.119Z,7.57
2022-10-11T10:28:23.157Z,7.75
2022-10-11T10:30:55.122Z,6.85
2022-10-11T10:33:23.155Z,6.20
2022-10-11T10:36:09.389Z,7.47
2022-10-11T10:38:40.625Z,7.00
2022-10-11T10:41:11.671Z,6.43
2022-10-11T10:43:40.165Z,6.43
2022-10-11T10:46:46.649Z,5.93
2022-10-11T10:49:51.922Z,6.35
2022-10-11T10:52:36.091Z,5.75
2022-10-11T10:58:46.538Z,6.13
2022-10-11T11:01:33.707Z,5.80
2022-10-11T11:04:35.662Z,5.88
2022-10-11T11:07:25.960Z,5.65
2022-10-11T11:10:01.189Z,6.13
2022-10-11T11:12:48.438Z,6.15
2022-10-11T11:15:35.586Z,7.30
2022-10-11T11:18:28.429Z,6.22
2022-10-11T11:21:36.787Z,6.03
2022-10-11T11:24:31.529Z,5.03
2022-10-11T11:30:14.411Z,7.53
2022-10-11T11:35:50.116Z,5.72
2022-10-11T11:40:58.194Z,6.55
2022-10-11T11:43:35.246Z,6.63
2022-10-11T11:46:09.560Z,6.78
2022-10-11T11:48:36.268Z,6.50
2022-10-11T11:51:27.760Z,5.45
2022-10-11T11:54:22.247Z,6.70
2022-10-11T11:57:17.357Z,7.32
2022-10-11T12:00:08.527Z,5.57
2022-10-11T12:02:43.102Z,5.53
2022-10-11T12:05:10.613Z,6.03
2022-10-11T12:07:58.605Z,6.43
2022-10-11T12:10:30.284Z,6.40
2022-10-11T12:16:12.852Z,5.47
2022-10-11T12:19:00.240Z,4.80
2022-10-11T12:21:34.959Z,5.70
2022-10-11T12:24:22.517Z,7.53
2022-10-11T12:26:57.964Z,6.05
2022-10-11T12:29:46.818Z,6.32
2022-10-11T12:35:35.574Z,5.80
2022-10-11T12:38:10.604Z,6.07
2022-10-11T12:40:42.347Z,5.40
2022-10-11T12:45:57.513Z,4.88
2022-10-11T12:48:45.070Z,4.85
2022-10-11T12:51:35.465Z,4.28
2022-10-11T12:57:32.556Z,5.43
2022-10-11T13:00:31.131Z,5.88
2022-10-11T13:02:58.872Z,6.65
2022-10-11T13:05:27.385Z,5.95
2022-10-11T13:07:55.372Z,6.25
2022-10-11T13:10:27.392Z,6.47
2022-10-11T13:12:54.192Z,6.63
2022-10-11T13:15:21.821Z,6.95
2022-10-11T13:17:51.673Z,5.72
2022-10-11T13:20:21.344Z,6.85
2022-10-11T13:22:49.751Z,5.50
2022-10-11T13:25:19.351Z,6.13
2022-10-11T13:27:46.047Z,6.78
2022-10-11T13:30:19.904Z,6.30
2022-10-11T13:32:46.717Z,5.22
2022-10-11T13:35:23.834Z,7.53
2022-10-11T13:37:51.441Z,6.30
2022-10-11T13:40:19.388Z,6.07
2022-10-11T13:42:46.157Z,5.68
2022-10-11T13:45:13.617Z,5.45
2022-10-11T13:47:40.248Z,6.22
2022-10-11T13:50:31.656Z,6.68
2022-10-11T13:53:04.520Z,6.30
2022-10-11T13:55:36.621Z,6.30
2022-10-11T13:58:09.409Z,6.28
2022-10-11T14:00:38.133Z,6.43
2022-10-11T14:03:17.100Z,7.05
2022-10-11T14:05:51.509Z,6.30
2022-10-11T14:08:39.326Z,6.18
2022-10-11T14:11:06.981Z,6.15
2022-10-11T14:13:42.248Z,6.93
2022-10-11T14:16:13.982Z,6.97
2022-10-11T14:18:44.209Z,7.68
2022-10-11T14:21:23.800Z,8.18
2022-10-11T14:23:51.785Z,7.43
2022-10-11T14:26:19.101Z,8.88
2022-10-11T14:28:46.445Z,8.43
2022-10-11T14:31:13.091Z,9.38
2022-10-11T14:33:39.660Z,9.15
2022-10-11T14:36:06.897Z,7.93
2022-10-11T14:38:33.761Z,8.70
2022-10-11T14:41:00.396Z,7.60
2022-10-11T14:43:27.007Z,9.48
2022-10-11T14:45:53.762Z,9.13
2022-10-11T14:48:43.171Z,7.78
2022-10-11T14:51:07.098Z,9.27
2022-10-11T14:53:36.354Z,9.48
2022-10-11T14:56:07.364Z,8.13
2022-10-11T14:58:34.133Z,14.20
2022-10-11T15:01:00.701Z,8.77
2022-10-11T15:03:27.353Z,11.07
2022-10-11T15:05:53.986Z,8.65
2022-10-11T15:08:20.558Z,7.97
2022-10-11T15:10:47.168Z,7.43
2022-10-11T15:13:16.150Z,9.13
2022-10-11T15:15:42.771Z,9.07
2022-10-11T15:18:12.321Z,9.68
2022-10-11T15:20:40.709Z,9.73
2022-10-11T15:23:09.337Z,8.35
2022-10-11T15:25:36.080Z,8.93
2022-10-11T15:28:02.715Z,8.52
2022-10-11T15:30:31.246Z,14.02
2022-10-11T15:32:57.944Z,10.43
2022-10-11T15:35:24.926Z,10.10
2022-10-11T15:37:53.497Z,10.30
2022-10-11T15:40:22.687Z,10.13
2022-10-11T15:42:49.870Z,9.05
2022-10-11T15:45:17.185Z,11.20
2022-10-11T15:47:44.044Z,8.55
2022-10-11T15:50:15.252Z,10.38
2022-10-11T15:52:41.939Z,9.27
2022-10-11T15:55:08.617Z,8.52
2022-10-11T15:57:35.211Z,8.20
2022-10-11T16:00:01.878Z,7.47
2022-10-11T16:02:28.722Z,8.18
2022-10-11T16:04:55.448Z,9.18
2022-10-11T16:07:22.047Z,8.48
2022-10-11T16:09:48.633Z,8.20
2022-10-11T16:12:15.214Z,7.22
2022-10-11T16:14:46.971Z,9.25
2022-10-11T16:17:13.898Z,7.25
2022-10-11T16:19:40.585Z,9.10
2022-10-11T16:22:07.244Z,9.13
2022-10-11T16:24:33.896Z,8.23
2022-10-11T16:27:01.044Z,8.38
2022-10-11T16:29:27.919Z,8.45
2022-10-11T16:31:54.702Z,8.65
2022-10-11T16:34:21.312Z,8.82
2022-10-11T16:36:47.984Z,9.38
2022-10-11T16:39:16.832Z,9.45
2022-10-11T16:41:43.580Z,10.05
2022-10-11T16:44:13.288Z,10.05
2022-10-11T16:46:39.910Z,9.98
2022-10-11T16:49:06.673Z,9.93
2022-10-11T16:51:33.393Z,10.48
2022-10-11T16:54:00.630Z,10.10
2022-10-11T16:56:27.501Z,11.13
2022-10-11T16:58:54.336Z,10.80
2022-10-11T17:01:21.115Z,10.00
2022-10-11T17:03:49.375Z,10.18
2022-10-11T17:06:15.996Z,10.93
2022-10-11T17:08:42.664Z,11.07
2022-10-11T17:11:09.337Z,10.77
2022-10-11T17:13:35.995Z,11.70
2022-10-11T17:16:02.898Z,11.25
2022-10-11T17:18:29.758Z,11.13
2022-10-11T17:21:05.845Z,11.25
2022-10-11T17:23:33.883Z,11.63
2022-10-11T17:26:04.400Z,11.38
2022-10-11T17:28:34.890Z,12.48
2022-10-11T17:31:01.638Z,12.05
2022-10-11T17:33:28.276Z,11.20
2022-10-11T17:35:55.364Z,12.25
2022-10-11T17:38:26.150Z,12.20
2022-10-11T17:41:08.646Z,11.05
2022-10-11T17:43:35.574Z,13.80
2022-10-11T17:46:05.962Z,11.52
2022-10-11T17:48:34.509Z,12.57
2022-10-11T17:51:07.607Z,11.80
2022-10-11T17:53:34.649Z,12.23
2022-10-11T17:56:04.909Z,13.27
2022-10-11T17:58:31.798Z,14.95
2022-10-11T18:01:04.363Z,14.93
2022-10-11T18:03:31.334Z,14.63
2022-10-11T18:05:58.041Z,15.27
2022-10-11T18:08:24.699Z,16.45
2022-10-11T18:10:51.331Z,15.95
2022-10-11T18:13:18.013Z,18.17
2022-10-11T18:15:44.727Z,16.10
2022-10-11T18:18:11.696Z,14.57
2022-10-11T18:20:38.312Z,13.20
2022-10-11T18:23:04.964Z,17.08
2022-10-11T18:25:33.451Z,14.82
2022-10-11T18:28:00.052Z,18.27
2022-10-11T18:30:26.724Z,14.73
2022-10-11T18:32:53.371Z,14.73
2022-10-11T18:35:19.977Z,15.13
2022-10-11T18:37:46.598Z,14.45
2022-10-11T18:40:13.260Z,15.35
2022-10-11T18:42:39.907Z,15.00
2022-10-11T18:45:07.201Z,16.88
2022-10-11T18:47:33.806Z,16.33
2022-10-11T18:50:00.416Z,16.33
2022-10-11T18:52:27.006Z,15.60
2022-10-11T18:54:53.685Z,16.05
2022-10-11T18:57:20.304Z,15.68
2022-10-11T18:59:46.960Z,15.38
2022-10-11T19:02:13.535Z,16.10
2022-10-11T19:04:40.235Z,18.42
2022-10-11T19:07:06.856Z,16.42
2022-10-11T19:09:33.464Z,14.63
2022-10-11T19:12:00.134Z,15.02
2022-10-11T19:14:28.610Z,16.38
2022-10-11T19:16:55.433Z,14.80
2022-10-11T19:19:24.559Z,15.88
2022-10-11T19:21:51.744Z,16.25
2022-10-11T19:24:20.185Z,16.33
2022-10-11T19:26:46.968Z,14.63
2022-10-11T19:29:15.376Z,13.88
2022-10-11T19:31:43.601Z,15.00
2022-10-11T19:34:10.364Z,13.50
2022-10-11T19:36:37.427Z,15.35
2022-10-11T19:39:04.839Z,13.55
2022-10-11T19:41:31.642Z,14.90
2022-10-11T19:43:58.267Z,17.20
2022-10-11T19:46:44.848Z,16.05
2022-10-11T19:49:13.887Z,14.73
2022-10-11T19:51:40.573Z,14.82
2022-10-11T19:54:09.748Z,14.32
2022-10-11T19:56:36.521Z,14.82
2022-10-11T19:59:03.163Z,14.57
2022-10-11T20:01:30.689Z,15.45
2022-10-11T20:03:59.829Z,16.73
2022-10-11T20:06:27.680Z,15.48
2022-10-11T20:09:16.669Z,14.85
2022-10-11T20:11:41.273Z,14.80
2022-10-11T20:14:08.666Z,15.05
2022-10-11T20:16:35.410Z,15.48
2022-10-11T20:19:02.081Z,15.13
2022-10-11T20:21:29.672Z,15.77
2022-10-11T20:23:58.638Z,14.65
2022-10-11T20:26:25.489Z,15.85
2022-10-11T20:28:55.940Z,15.15
2022-10-11T20:31:26.218Z,15.30
2022-10-11T20:33:55.791Z,15.63
2022-10-11T20:36:22.618Z,16.42
2022-10-11T20:38:49.635Z,15.45
2022-10-11T20:41:18.299Z,16.42
2022-10-11T20:43:45.679Z,17.92
2022-10-11T20:46:14.245Z,15.13
2022-10-11T20:48:41.131Z,15.57
2022-10-11T20:51:08.932Z,17.83
2022-10-11T20:53:36.254Z,16.13
2022-10-11T20:56:03.206Z,15.43
2022-10-11T20:58:29.816Z,16.92
2022-10-11T21:00:56.551Z,18.13
2022-10-11T21:03:23.157Z,16.00
2022-10-11T21:05:58.201Z,16.13
2022-10-11T21:08:24.854Z,16.67
2022-10-11T21:10:52.595Z,16.63
2022-10-11T21:13:19.264Z,17.27
2022-10-11T21:15:45.971Z,17.95
2022-10-11T21:18:13.014Z,17.30
2022-10-11T21:20:40.569Z,18.88
2022-10-11T21:23:07.349Z,18.00
2022-10-11T21:25:34.979Z,18.05
2022-10-11T21:28:01.764Z,17.35
2022-10-11T21:30:28.374Z,20.02
2022-10-11T21:32:57.299Z,19.77
2022-10-11T21:35:25.588Z,18.13
2022-10-11T21:37:52.192Z,21.38
2022-10-11T21:40:18.894Z,17.80
2022-10-11T21:42:45.655Z,17.95
2022-10-11T21:45:12.353Z,16.80
2022-10-11T21:47:39.532Z,17.02
2022-10-11T21:50:06.531Z,18.88
2022-10-11T21:52:33.391Z,15.85
2022-10-11T21:55:00.118Z,16.48
2022-10-11T21:57:26.688Z,18.20
2022-10-11T21:59:53.295Z,17.90
2022-10-11T22:02:19.872Z,19.13
2022-10-11T22:04:46.477Z,17.20
2022-10-11T22:07:13.118Z,20.13
2022-10-11T22:09:39.725Z,18.42
2022-10-11T22:12:06.512Z,21.00
2022-10-11T22:14:33.134Z,17.55
2022-10-11T22:16:59.716Z,17.10
2022-10-11T22:19:26.370Z,18.80
2022-10-11T22:21:53.133Z,17.58
2022-10-11T22:24:19.776Z,19.23
2022-10-11T22:26:46.460Z,19.45
2022-10-11T22:29:13.070Z,18.17
2022-10-11T22:31:39.724Z,20.08
2022-10-11T22:34:06.475Z,18.73
2022-10-11T22:36:33.740Z,19.27
2022-10-11T22:39:00.370Z,18.05
2022-10-11T22:41:27.054Z,19.48
2022-10-11T22:43:53.642Z,19.90
2022-10-11T22:46:20.251Z,16.38
2022-10-11T22:48:46.824Z,18.48
2022-10-11T22:51:14.313Z,18.85
2022-10-11T22:53:40.884Z,19.88
2022-10-11T22:56:08.731Z,20.88
2022-10-11T22:58:35.522Z,17.75
2022-10-11T23:01:10.146Z,18.40
2022-10-11T23:03:36.994Z,20.52
2022-10-11T23:06:03.914Z,20.52
2022-10-11T23:08:30.544Z,19.75
2022-10-11T23:10:57.139Z,20.38
2022-10-11T23:13:23.749Z,21.58
2022-10-11T23:15:50.404Z,21.55
2022-10-11T23:18:17.029Z,23.38
2022-10-11T23:20:43.634Z,20.23
2022-10-11T23:23:10.251Z,22.48
2022-10-11T23:25:36.843Z,21.83
2022-10-11T23:28:03.480Z,22.50
2022-10-11T23:30:30.109Z,21.75
2022-10-11T23:32:56.697Z,23.02
2022-10-11T23:35:23.346Z,21.75
2022-10-11T23:37:49.920Z,21.80
2022-10-11T23:40:16.576Z,20.85
2022-10-11T23:42:43.253Z,21.33
2022-10-11T23:45:10.214Z,23.73
2022-10-11T23:47:37.122Z,23.38
2022-10-11T23:50:04.344Z,23.63
2022-10-11T23:52:30.966Z,21.08
2022-10-11T23:54:57.561Z,21.02
2022-10-11T23:57:24.152Z,23.85
2022-10-11T23:59:50.731Z,22.58
